createdAt,value
2023-04-20T00:01:14.526Z,7.52
2023-04-20T00:03:41.847Z,7.50
2023-04-20T00:06:09.312Z,7.49
2023-04-20T00:08:36.244Z,7.46
2023-04-20T00:11:03.419Z,7.45
2023-04-20T00:13:30.412Z,7.44
2023-04-20T00:15:57.580Z,7.41
2023-04-20T00:18:24.465Z,7.38
2023-04-20T00:20:51.633Z,7.36
2023-04-20T00:23:18.474Z,7.35
2023-04-20T00:25:45.709Z,7.34
2023-04-20T00:28:12.578Z,7.34
2023-04-20T00:30:39.720Z,7.35
2023-04-20T00:33:06.620Z,7.36
2023-04-20T00:35:33.964Z,7.36
2023-04-20T00:38:00.825Z,7.37
2023-04-20T00:40:27.911Z,7.39
2023-04-20T00:42:54.905Z,7.40
2023-04-20T00:45:22.353Z,7.44
2023-04-20T00:47:49.327Z,7.44
2023-04-20T00:50:17.819Z,7.47
2023-04-20T00:52:45.715Z,7.51
2023-04-20T00:55:12.919Z,7.54
2023-04-20T00:57:41.733Z,7.56
2023-04-20T01:00:10.681Z,7.58
2023-04-20T01:02:37.834Z,7.60
2023-04-20T01:05:05.648Z,7.62
2023-04-20T01:07:32.652Z,7.64
2023-04-20T01:09:59.974Z,7.64
2023-04-20T01:12:26.890Z,7.64
2023-04-20T01:14:54.020Z,7.64
2023-04-20T01:17:21.351Z,7.63
2023-04-20T01:19:49.259Z,7.60
2023-04-20T01:22:21.236Z,7.56
2023-04-20T01:24:48.988Z,7.53
2023-04-20T01:27:17.193Z,7.48
2023-04-20T01:29:45.288Z,7.45
2023-04-20T01:32:12.445Z,7.43
2023-04-20T01:34:39.637Z,7.38
2023-04-20T01:37:08.361Z,7.36
2023-04-20T01:39:37.601Z,7.35
2023-04-20T01:42:05.832Z,7.32
2023-04-20T01:44:32.961Z,7.26
2023-04-20T01:47:00.009Z,7.22
2023-04-20T01:49:27.352Z,7.18
2023-04-20T01:51:54.262Z,7.17
2023-04-20T01:54:21.603Z,7.15
2023-04-20T01:56:48.466Z,7.13
2023-04-20T01:59:15.818Z,7.13
2023-04-20T02:01:42.996Z,7.13
2023-04-20T02:04:10.335Z,7.14
2023-04-20T02:06:37.292Z,7.13
2023-04-20T02:09:04.660Z,7.14
2023-04-20T02:11:31.504Z,7.10
2023-04-20T02:13:58.668Z,7.10
2023-04-20T02:16:25.677Z,7.08
2023-04-20T02:18:52.872Z,7.09
2023-04-20T02:21:19.683Z,7.11
2023-04-20T02:23:46.863Z,7.11
2023-04-20T02:26:13.805Z,7.14
2023-04-20T02:28:41.060Z,7.16
2023-04-20T02:31:07.927Z,7.15
2023-04-20T02:33:35.275Z,7.14
2023-04-20T02:36:02.176Z,7.14
2023-04-20T02:38:29.324Z,7.14
2023-04-20T02:40:56.249Z,7.15
2023-04-20T02:43:23.499Z,7.18
2023-04-20T02:45:50.534Z,7.19
2023-04-20T02:48:17.861Z,7.19
2023-04-20T02:50:44.803Z,7.21
2023-04-20T02:53:11.950Z,7.20
2023-04-20T02:55:38.820Z,7.22
2023-04-20T02:58:06.101Z,7.24
2023-04-20T03:00:32.944Z,7.26
2023-04-20T03:03:00.295Z,7.28
2023-04-20T03:05:27.284Z,7.29
2023-04-20T03:07:54.449Z,7.31
2023-04-20T03:10:21.343Z,7.27
2023-04-20T03:12:48.625Z,7.26
2023-04-20T03:15:17.129Z,7.28
2023-04-20T03:17:44.357Z,7.28
2023-04-20T03:20:12.008Z,7.28
2023-04-20T03:22:39.101Z,7.26
2023-04-20T03:25:06.570Z,7.27
2023-04-20T03:27:33.736Z,7.24
2023-04-20T03:30:00.841Z,7.25
2023-04-20T03:32:28.022Z,7.24
2023-04-20T03:34:54.864Z,7.27
2023-04-20T03:37:22.068Z,7.25
2023-04-20T03:39:48.935Z,7.21
2023-04-20T03:42:16.330Z,7.17
2023-04-20T03:44:43.187Z,7.13
2023-04-20T03:47:10.987Z,7.12
2023-04-20T03:49:37.926Z,7.13
2023-04-20T03:52:05.715Z,7.14
2023-04-20T03:54:32.576Z,7.16
2023-04-20T03:56:59.762Z,7.17
2023-04-20T03:59:26.670Z,7.20
2023-04-20T04:01:54.286Z,7.24
2023-04-20T04:04:21.426Z,7.29
2023-04-20T04:06:48.962Z,7.31
2023-04-20T04:09:15.940Z,7.33
2023-04-20T04:11:43.459Z,7.38
2023-04-20T04:14:10.663Z,7.43
2023-04-20T04:16:38.009Z,7.47
2023-04-20T04:19:04.831Z,7.52
2023-04-20T04:21:31.960Z,7.58
2023-04-20T04:23:59.092Z,7.63
2023-04-20T04:26:26.798Z,7.67
2023-04-20T04:28:53.670Z,7.74
2023-04-20T04:31:21.759Z,7.81
2023-04-20T04:33:49.741Z,7.88
2023-04-20T04:36:17.735Z,7.94
2023-04-20T04:38:44.874Z,7.99
2023-04-20T04:41:12.845Z,8.04
2023-04-20T04:43:41.139Z,8.09
2023-04-20T04:46:13.274Z,8.13
2023-04-20T04:48:43.489Z,8.21
2023-04-20T04:51:10.804Z,8.27
2023-04-20T04:53:38.099Z,8.34
2023-04-20T04:56:06.994Z,8.40
2023-04-20T04:58:33.927Z,8.44
2023-04-20T05:01:01.146Z,8.49
2023-04-20T05:03:28.111Z,8.57
2023-04-20T05:05:55.463Z,8.64
2023-04-20T05:08:24.476Z,8.71
2023-04-20T05:10:51.672Z,8.77
2023-04-20T05:13:18.564Z,8.81
2023-04-20T05:15:45.694Z,8.86
2023-04-20T05:18:12.500Z,8.88
2023-04-20T05:20:39.664Z,8.92
2023-04-20T05:23:06.476Z,8.96
2023-04-20T05:25:33.821Z,9.00
2023-04-20T05:28:00.867Z,9.02
2023-04-20T05:30:28.036Z,9.05
2023-04-20T05:32:55.019Z,9.10
2023-04-20T05:35:22.525Z,9.13
2023-04-20T05:37:49.430Z,9.18
2023-04-20T05:40:16.630Z,9.22
2023-04-20T05:42:43.595Z,9.27
2023-04-20T05:45:11.484Z,9.32
2023-04-20T05:47:38.458Z,9.36
2023-04-20T05:50:06.566Z,9.47
2023-04-20T05:52:33.529Z,9.54
2023-04-20T05:55:00.666Z,9.65
2023-04-20T05:57:27.613Z,9.78
2023-04-20T05:59:56.171Z,9.88
2023-04-20T06:02:23.384Z,9.96
2023-04-20T06:04:50.842Z,10.03
2023-04-20T06:07:30.073Z,10.10
2023-04-20T06:09:57.575Z,10.14
2023-04-20T06:12:26.262Z,10.19
2023-04-20T06:14:53.916Z,10.26
2023-04-20T06:17:20.751Z,10.34
2023-04-20T06:19:48.002Z,10.42
2023-04-20T06:22:15.919Z,10.50
2023-04-20T06:24:43.246Z,10.57
2023-04-20T06:27:10.750Z,10.66
2023-04-20T06:29:38.259Z,10.75
2023-04-20T06:32:05.385Z,10.84
2023-04-20T06:34:32.720Z,10.91
2023-04-20T06:36:59.589Z,10.98
2023-04-20T06:39:26.757Z,11.06
2023-04-20T06:41:53.597Z,11.13
2023-04-20T06:44:20.847Z,11.21
2023-04-20T06:46:47.811Z,11.29
2023-04-20T06:49:15.122Z,11.38
2023-04-20T06:51:43.208Z,11.51
2023-04-20T06:54:10.454Z,11.65
2023-04-20T06:56:37.319Z,11.82
2023-04-20T06:59:04.523Z,12.01
2023-04-20T07:01:31.430Z,12.23
2023-04-20T07:03:58.903Z,12.48
2023-04-20T07:06:27.589Z,12.82
2023-04-20T07:08:54.677Z,13.14
2023-04-20T07:11:21.564Z,13.65
2023-04-20T07:13:48.781Z,14.66
2023-04-20T07:16:16.673Z,15.70
2023-04-20T07:18:43.995Z,16.54
2023-04-20T07:21:10.898Z,17.22
2023-04-20T07:23:38.078Z,18.05
2023-04-20T07:26:05.098Z,19.18
2023-04-20T07:28:32.948Z,20.49
2023-04-20T07:31:00.008Z,21.58
2023-04-20T07:33:27.934Z,22.48
2023-04-20T07:35:54.768Z,22.87
2023-04-20T07:38:21.911Z,22.79
2023-04-20T07:40:48.807Z,22.47
2023-04-20T07:43:15.956Z,22.19
2023-04-20T07:45:42.987Z,22.65
2023-04-20T07:48:12.539Z,23.54
2023-04-20T07:50:39.944Z,24.33
2023-04-20T07:53:07.298Z,24.93
2023-04-20T07:55:34.251Z,25.29
2023-04-20T07:58:01.459Z,25.58
2023-04-20T08:00:28.497Z,25.92
2023-04-20T08:02:55.919Z,26.19
2023-04-20T08:05:24.568Z,26.22
2023-04-20T08:07:52.158Z,26.66
2023-04-20T08:10:19.123Z,27.38
2023-04-20T08:12:47.167Z,27.93
2023-04-20T08:15:14.627Z,28.46
2023-04-20T08:17:41.915Z,28.67
2023-04-20T08:20:09.286Z,28.74
2023-04-20T08:22:36.560Z,28.68
2023-04-20T08:25:03.708Z,28.78
2023-04-20T08:27:30.757Z,29.05
2023-04-20T08:29:58.120Z,29.21
2023-04-20T08:32:27.066Z,29.05
2023-04-20T08:34:55.350Z,28.59
2023-04-20T08:37:22.432Z,28.02
2023-04-20T08:39:49.642Z,27.28
2023-04-20T08:42:17.118Z,26.54
2023-04-20T08:44:44.313Z,25.67
2023-04-20T08:47:12.136Z,24.97
2023-04-20T08:49:40.404Z,24.66
2023-04-20T08:52:10.839Z,24.59
2023-04-20T08:54:45.942Z,24.20
2023-04-20T08:57:16.545Z,23.42
2023-04-20T08:59:43.721Z,22.50
2023-04-20T09:02:12.083Z,22.90
2023-04-20T09:04:40.943Z,23.41
2023-04-20T09:07:17.905Z,23.63
2023-04-20T09:09:58.043Z,22.89
2023-04-20T09:12:25.518Z,22.49
2023-04-20T09:14:53.583Z,22.56
2023-04-20T09:17:37.251Z,22.67
2023-04-20T09:20:08.624Z,23.38
2023-04-20T09:22:37.644Z,24.09
2023-04-20T09:25:15.477Z,24.65
2023-04-20T09:27:42.337Z,25.54
2023-04-20T09:30:09.969Z,26.14
2023-04-20T09:32:36.852Z,25.01
2023-04-20T09:35:04.229Z,23.95
2023-04-20T09:37:31.157Z,22.88
2023-04-20T09:40:00.924Z,22.45
2023-04-20T09:42:28.936Z,23.14
2023-04-20T09:44:57.588Z,23.92
2023-04-20T09:47:26.891Z,24.05
2023-04-20T09:49:54.902Z,24.54
2023-04-20T09:52:24.257Z,24.50
2023-04-20T09:54:51.796Z,24.21
2023-04-20T09:57:19.490Z,23.79
2023-04-20T09:59:47.405Z,23.15
2023-04-20T10:02:15.126Z,22.48
2023-04-20T10:04:55.867Z,21.67
2023-04-20T10:07:27.323Z,21.20
2023-04-20T10:10:15.827Z,21.25
2023-04-20T10:12:51.626Z,20.69
2023-04-20T10:15:19.428Z,20.68
2023-04-20T10:17:46.461Z,21.51
2023-04-20T10:20:27.123Z,22.35
2023-04-20T10:22:55.641Z,22.46
2023-04-20T10:25:26.897Z,22.80
2023-04-20T10:27:53.878Z,22.84
2023-04-20T10:30:21.933Z,22.89
2023-04-20T10:32:48.911Z,23.24
2023-04-20T10:35:16.357Z,23.46
2023-04-20T10:37:51.073Z,23.56
2023-04-20T10:40:27.220Z,23.18
2023-04-20T10:42:54.130Z,22.50
2023-04-20T10:45:22.051Z,21.88
2023-04-20T10:47:49.078Z,22.10
2023-04-20T10:50:16.662Z,22.95
2023-04-20T10:52:44.818Z,23.98
2023-04-20T10:55:28.283Z,24.59
2023-04-20T10:57:55.167Z,25.17
2023-04-20T11:00:25.498Z,25.46
2023-04-20T11:02:58.270Z,25.67
2023-04-20T11:05:27.923Z,25.61
2023-04-20T11:07:59.033Z,25.74
2023-04-20T11:10:39.038Z,25.79
2023-04-20T11:13:06.086Z,25.96
2023-04-20T11:15:34.157Z,25.09
2023-04-20T11:18:12.171Z,23.76
2023-04-20T11:20:54.070Z,22.77
2023-04-20T11:23:22.673Z,21.93
2023-04-20T11:25:53.960Z,21.24
2023-04-20T11:28:21.033Z,20.86
2023-04-20T11:30:49.727Z,20.45
2023-04-20T11:33:28.225Z,20.12
2023-04-20T11:35:56.791Z,20.02
2023-04-20T11:38:34.271Z,19.80
2023-04-20T11:41:08.013Z,19.72
2023-04-20T11:43:36.055Z,19.50
2023-04-20T11:46:03.652Z,19.29
2023-04-20T11:48:31.707Z,19.14
2023-04-20T11:50:58.951Z,19.07
2023-04-20T11:53:25.888Z,18.91
2023-04-20T11:55:53.010Z,18.84
2023-04-20T11:58:19.847Z,18.60
2023-04-20T12:00:47.019Z,18.54
2023-04-20T12:03:14.034Z,18.57
2023-04-20T12:05:43.345Z,18.52
2023-04-20T12:08:10.360Z,18.45
2023-04-20T12:10:37.588Z,18.44
2023-04-20T12:13:04.519Z,18.43
2023-04-20T12:15:31.886Z,18.51
2023-04-20T12:17:58.906Z,18.59
2023-04-20T12:20:26.307Z,18.67
2023-04-20T12:22:53.250Z,18.65
2023-04-20T12:25:20.719Z,18.51
2023-04-20T12:27:49.436Z,18.34
2023-04-20T12:30:17.228Z,18.12
2023-04-20T12:32:44.092Z,18.01
2023-04-20T12:35:11.294Z,17.97
2023-04-20T12:37:38.106Z,17.96
2023-04-20T12:40:06.627Z,17.94
2023-04-20T12:42:33.627Z,17.92
2023-04-20T12:45:00.765Z,17.98
2023-04-20T12:47:27.655Z,18.06
2023-04-20T12:49:55.187Z,18.13
2023-04-20T12:52:22.100Z,18.14
2023-04-20T12:54:50.004Z,18.13
2023-04-20T12:57:17.174Z,18.08
2023-04-20T12:59:44.305Z,18.05
2023-04-20T13:02:12.149Z,18.03
2023-04-20T13:04:39.520Z,18.08
2023-04-20T13:07:07.173Z,18.16
2023-04-20T13:09:34.439Z,18.29
2023-04-20T13:12:01.397Z,18.13
2023-04-20T13:14:29.722Z,17.91
2023-04-20T13:16:56.727Z,17.84
2023-04-20T13:19:23.953Z,17.75
2023-04-20T13:21:50.901Z,17.70
2023-04-20T13:24:18.336Z,17.61
2023-04-20T13:26:45.690Z,17.53
2023-04-20T13:29:13.077Z,17.39
2023-04-20T13:31:40.752Z,17.39
2023-04-20T13:34:08.003Z,17.48
2023-04-20T13:36:34.908Z,17.66
2023-04-20T13:39:02.137Z,17.69
2023-04-20T13:41:29.039Z,17.72
2023-04-20T13:43:57.949Z,17.66
2023-04-20T13:46:25.021Z,17.63
2023-04-20T13:48:52.269Z,17.66
2023-04-20T13:51:19.677Z,17.72
2023-04-20T13:53:50.140Z,17.88
2023-04-20T13:56:17.188Z,18.03
2023-04-20T13:58:44.740Z,18.14
2023-04-20T14:01:13.452Z,18.34
2023-04-20T14:03:42.017Z,18.51
2023-04-20T14:06:09.086Z,18.54
2023-04-20T14:08:36.376Z,18.51
2023-04-20T14:11:03.230Z,18.49
2023-04-20T14:13:30.507Z,18.49
2023-04-20T14:15:57.747Z,18.52
2023-04-20T14:18:24.922Z,18.57
2023-04-20T14:20:52.490Z,18.61
2023-04-20T14:23:19.791Z,18.65
2023-04-20T14:25:46.649Z,18.68
2023-04-20T14:28:16.786Z,18.56
2023-04-20T14:30:45.372Z,18.45
2023-04-20T14:33:13.015Z,18.47
2023-04-20T14:35:40.493Z,18.48
2023-04-20T14:38:07.676Z,18.47
2023-04-20T14:40:34.864Z,18.30
2023-04-20T14:43:02.024Z,18.30
2023-04-20T14:45:28.973Z,18.33
2023-04-20T14:47:57.145Z,18.37
2023-04-20T14:50:28.911Z,18.16
2023-04-20T14:52:56.324Z,18.04
2023-04-20T14:55:25.806Z,18.03
2023-04-20T14:57:56.502Z,18.00
2023-04-20T15:00:24.812Z,17.97
2023-04-20T15:02:53.617Z,17.89
2023-04-20T15:05:20.688Z,17.81
2023-04-20T15:07:50.777Z,17.75
2023-04-20T15:10:19.497Z,17.70
2023-04-20T15:12:48.049Z,17.61
2023-04-20T15:15:17.106Z,17.57
2023-04-20T15:17:45.991Z,17.45
2023-04-20T15:20:15.228Z,17.52
2023-04-20T15:22:42.562Z,17.54
2023-04-20T15:25:09.804Z,17.58
2023-04-20T15:27:37.017Z,17.62
2023-04-20T15:30:05.174Z,17.62
2023-04-20T15:32:35.585Z,17.66
2023-04-20T15:35:02.725Z,17.68
2023-04-20T15:37:30.083Z,17.63
2023-04-20T15:39:57.091Z,17.50
2023-04-20T15:42:24.240Z,17.39
2023-04-20T15:44:51.138Z,17.33
2023-04-20T15:47:18.306Z,17.26
2023-04-20T15:49:45.371Z,17.23
2023-04-20T15:52:12.501Z,17.19
2023-04-20T15:54:39.848Z,17.10
2023-04-20T15:57:07.085Z,17.03
2023-04-20T15:59:33.948Z,16.95
2023-04-20T16:02:01.199Z,16.88
2023-04-20T16:04:28.118Z,16.82
2023-04-20T16:06:55.430Z,16.75
2023-04-20T16:09:23.796Z,16.70
2023-04-20T16:11:51.204Z,16.64
2023-04-20T16:14:18.455Z,16.58
2023-04-20T16:16:46.029Z,16.53
2023-04-20T16:19:15.960Z,16.48
2023-04-20T16:21:43.186Z,16.41
2023-04-20T16:24:10.078Z,16.38
2023-04-20T16:26:38.960Z,16.32
2023-04-20T16:29:06.483Z,16.26
2023-04-20T16:31:37.486Z,16.23
2023-04-20T16:34:04.469Z,16.18
2023-04-20T16:36:32.164Z,16.15
2023-04-20T16:38:59.038Z,16.11
2023-04-20T16:41:27.235Z,16.07
2023-04-20T16:43:54.196Z,16.04
2023-04-20T16:46:22.392Z,15.96
2023-04-20T16:48:50.815Z,15.89
2023-04-20T16:51:18.025Z,15.80
2023-04-20T16:53:45.455Z,15.73
2023-04-20T16:56:12.827Z,15.68
2023-04-20T16:58:39.641Z,15.58
2023-04-20T17:01:07.995Z,15.51
2023-04-20T17:03:35.196Z,15.46
2023-04-20T17:06:07.515Z,15.38
2023-04-20T17:08:34.762Z,15.31
2023-04-20T17:11:02.088Z,15.26
2023-04-20T17:13:28.939Z,15.21
2023-04-20T17:15:56.407Z,15.15
2023-04-20T17:18:23.367Z,15.08
2023-04-20T17:20:50.722Z,15.01
2023-04-20T17:23:18.207Z,14.93
2023-04-20T17:25:47.388Z,14.83
2023-04-20T17:28:14.757Z,14.73
2023-04-20T17:30:41.991Z,14.64
2023-04-20T17:33:12.193Z,14.56
2023-04-20T17:35:39.579Z,14.51
2023-04-20T17:38:06.639Z,14.45
2023-04-20T17:40:34.047Z,14.41
2023-04-20T17:43:02.241Z,14.34
2023-04-20T17:45:29.410Z,14.26
2023-04-20T17:47:56.528Z,14.21
2023-04-20T17:50:24.444Z,14.14
2023-04-20T17:52:51.926Z,14.08
2023-04-20T17:55:19.072Z,14.03
2023-04-20T17:57:45.945Z,13.97
2023-04-20T18:00:13.732Z,13.90
2023-04-20T18:02:41.171Z,13.84
2023-04-20T18:05:08.812Z,13.79
2023-04-20T18:07:35.908Z,13.76
2023-04-20T18:10:04.267Z,13.72
2023-04-20T18:12:31.163Z,13.68
2023-04-20T18:14:58.267Z,13.64
2023-04-20T18:17:25.332Z,13.60
2023-04-20T18:19:52.507Z,13.52
2023-04-20T18:22:19.500Z,13.45
2023-04-20T18:24:46.692Z,13.36
2023-04-20T18:27:13.610Z,13.27
2023-04-20T18:29:40.744Z,13.24
2023-04-20T18:32:08.147Z,13.16
2023-04-20T18:34:35.511Z,13.08
2023-04-20T18:37:02.412Z,12.94
2023-04-20T18:39:30.027Z,12.84
2023-04-20T18:41:56.912Z,12.79
2023-04-20T18:44:24.217Z,12.77
2023-04-20T18:46:51.182Z,12.72
2023-04-20T18:49:18.319Z,12.68
2023-04-20T18:51:45.143Z,12.65
2023-04-20T18:54:12.267Z,12.61
2023-04-20T18:56:39.680Z,12.58
2023-04-20T18:59:08.609Z,12.58
2023-04-20T19:01:40.532Z,12.54
2023-04-20T19:04:08.611Z,12.50
2023-04-20T19:06:36.000Z,12.45
2023-04-20T19:09:03.346Z,12.42
2023-04-20T19:11:31.681Z,12.36
2023-04-20T19:13:58.864Z,12.30
2023-04-20T19:16:25.764Z,12.23
2023-04-20T19:18:53.695Z,12.15
2023-04-20T19:21:22.114Z,12.09
2023-04-20T19:23:49.422Z,12.07
2023-04-20T19:26:17.905Z,11.99
2023-04-20T19:28:45.996Z,11.92
2023-04-20T19:31:13.431Z,11.85
2023-04-20T19:33:41.089Z,11.81
2023-04-20T19:36:08.382Z,11.82
2023-04-20T19:38:37.576Z,11.81
2023-04-20T19:41:06.168Z,11.79
2023-04-20T19:43:33.623Z,11.80
2023-04-20T19:46:01.390Z,11.81
2023-04-20T19:48:28.704Z,11.79
2023-04-20T19:50:59.277Z,11.79
2023-04-20T19:53:27.143Z,11.84
2023-04-20T19:55:53.974Z,11.86
2023-04-20T19:58:21.234Z,11.92
2023-04-20T20:00:48.063Z,12.00
2023-04-20T20:03:16.278Z,12.04
2023-04-20T20:05:44.581Z,12.07
2023-04-20T20:08:11.822Z,12.09
2023-04-20T20:10:38.809Z,12.10
2023-04-20T20:13:06.153Z,11.98
2023-04-20T20:15:33.226Z,12.05
2023-04-20T20:18:00.715Z,12.05
2023-04-20T20:20:30.478Z,12.04
2023-04-20T20:22:58.129Z,11.99
2023-04-20T20:25:25.642Z,12.00
2023-04-20T20:27:53.173Z,11.98
2023-04-20T20:30:20.033Z,11.97
2023-04-20T20:32:47.253Z,11.97
2023-04-20T20:35:14.186Z,11.93
2023-04-20T20:37:41.674Z,11.94
2023-04-20T20:40:14.866Z,11.90
2023-04-20T20:42:43.065Z,11.89
2023-04-20T20:45:12.539Z,11.90
2023-04-20T20:47:41.231Z,11.90
2023-04-20T20:50:09.259Z,11.86
2023-04-20T20:52:36.571Z,11.86
2023-04-20T20:55:04.364Z,11.86
2023-04-20T20:57:31.612Z,11.90
2023-04-20T20:59:58.500Z,11.87
2023-04-20T21:02:25.826Z,11.85
2023-04-20T21:04:53.628Z,11.85
2023-04-20T21:07:20.810Z,11.84
2023-04-20T21:09:47.677Z,11.85
2023-04-20T21:12:14.874Z,11.83
2023-04-20T21:14:41.707Z,11.80
2023-04-20T21:17:09.055Z,11.79
2023-04-20T21:19:35.952Z,11.75
2023-04-20T21:22:03.250Z,11.71
2023-04-20T21:24:30.077Z,11.65
2023-04-20T21:26:58.161Z,11.64
2023-04-20T21:29:25.051Z,11.65
2023-04-20T21:31:52.271Z,11.62
2023-04-20T21:34:19.223Z,11.63
2023-04-20T21:36:46.451Z,11.60
2023-04-20T21:39:13.326Z,11.60
2023-04-20T21:41:40.592Z,11.56
2023-04-20T21:44:07.539Z,11.54
2023-04-20T21:46:36.073Z,11.47
2023-04-20T21:49:03.078Z,11.45
2023-04-20T21:51:30.192Z,11.42
2023-04-20T21:53:57.005Z,11.37
2023-04-20T21:56:24.165Z,11.33
2023-04-20T21:58:51.055Z,11.28
2023-04-20T22:01:18.301Z,11.21
2023-04-20T22:03:45.401Z,11.15
2023-04-20T22:06:12.712Z,11.13
2023-04-20T22:08:39.916Z,11.07
2023-04-20T22:11:07.465Z,11.03
2023-04-20T22:13:34.903Z,10.99
2023-04-20T22:16:02.206Z,10.98
2023-04-20T22:18:29.213Z,10.90
2023-04-20T22:20:56.331Z,10.80
2023-04-20T22:23:23.208Z,10.72
2023-04-20T22:25:50.431Z,10.65
2023-04-20T22:28:17.354Z,10.59
2023-04-20T22:30:44.519Z,10.55
2023-04-20T22:33:11.405Z,10.50
2023-04-20T22:35:38.565Z,10.37
2023-04-20T22:38:05.752Z,10.21
2023-04-20T22:40:32.962Z,10.13
2023-04-20T22:42:59.801Z,10.01
2023-04-20T22:45:26.950Z,9.94
2023-04-20T22:47:53.871Z,9.85
2023-04-20T22:50:21.109Z,9.79
2023-04-20T22:52:49.580Z,9.76
2023-04-20T22:55:16.920Z,9.73
2023-04-20T22:57:43.763Z,9.68
2023-04-20T23:00:13.646Z,9.61
2023-04-20T23:02:41.547Z,9.53
2023-04-20T23:05:09.753Z,9.44
2023-04-20T23:07:37.573Z,9.36
2023-04-20T23:10:06.162Z,9.28
2023-04-20T23:12:33.410Z,9.20
2023-04-20T23:15:01.441Z,9.14
2023-04-20T23:17:28.835Z,9.14
2023-04-20T23:19:56.615Z,9.12
2023-04-20T23:22:23.638Z,9.04
2023-04-20T23:24:50.810Z,8.91
2023-04-20T23:27:17.800Z,8.80
2023-04-20T23:29:45.218Z,8.77
2023-04-20T23:32:12.118Z,8.72
2023-04-20T23:34:39.348Z,8.64
2023-04-20T23:37:06.201Z,8.60
2023-04-20T23:39:37.240Z,8.53
2023-04-20T23:42:06.862Z,8.46
2023-04-20T23:44:34.016Z,8.44
2023-04-20T23:47:00.939Z,8.33
2023-04-20T23:49:28.161Z,8.23
2023-04-20T23:51:55.019Z,8.10
2023-04-20T23:54:22.271Z,7.99
2023-04-20T23:56:49.236Z,7.86
2023-04-20T23:59:16.886Z,7.68
